sensor_id;sensor_type;location;lat;lon;timestamp;pressure;altitude;pressure_sealevel;temperature
78669;BMP280;67984;45.118;20.724;2023-03-30T00:06:28;101210.41;;;7.10
78669;BMP280;67984;45.118;20.724;2023-03-30T00:16:29;101199.69;;;7.11
78669;BMP280;67984;45.118;20.724;2023-03-30T00:26:29;101201.22;;;7.12
78669;BMP280;67984;45.118;20.724;2023-03-30T00:36:30;101193.63;;;7.07
78669;BMP280;67984;45.118;20.724;2023-03-30T00:46:36;101169.63;;;6.98
78669;BMP280;67984;45.118;20.724;2023-03-30T00:56:37;101162.41;;;6.92
78669;BMP280;67984;45.118;20.724;2023-03-30T01:06:39;101148.22;;;6.89
78669;BMP280;67984;45.118;20.724;2023-03-30T01:27:48;101132.03;;;7.04
78669;BMP280;67984;45.118;20.724;2023-03-30T02:08:23;101127.25;;;7.06
78669;BMP280;67984;45.118;20.724;2023-03-30T02:18:25;101140.03;;;6.99
78669;BMP280;67984;45.118;20.724;2023-03-30T02:28:26;101128.75;;;6.95
78669;BMP280;67984;45.118;20.724;2023-03-30T02:49:02;101125.75;;;6.93
78669;BMP280;67984;45.118;20.724;2023-03-30T02:59:11;101111.16;;;6.89
78669;BMP280;67984;45.118;20.724;2023-03-30T03:09:13;101109.75;;;6.79
78669;BMP280;67984;45.118;20.724;2023-03-30T03:19:14;101103.69;;;6.76
78669;BMP280;67984;45.118;20.724;2023-03-30T03:29:17;101093.66;;;6.86
78669;BMP280;67984;45.118;20.724;2023-03-30T03:39:18;101083.91;;;6.83
78669;BMP280;67984;45.118;20.724;2023-03-30T03:49:19;101088.69;;;6.69
78669;BMP280;67984;45.118;20.724;2023-03-30T03:59:19;101088.53;;;6.54
78669;BMP280;67984;45.118;20.724;2023-03-30T04:09:22;101096.09;;;6.47
78669;BMP280;67984;45.118;20.724;2023-03-30T04:19:43;101097.09;;;6.42
78669;BMP280;67984;45.118;20.724;2023-03-30T04:29:56;101090.44;;;6.33
78669;BMP280;67984;45.118;20.724;2023-03-30T04:40:16;101092.72;;;6.34
78669;BMP280;67984;45.118;20.724;2023-03-30T04:50:45;101096.06;;;6.35
78669;BMP280;67984;45.118;20.724;2023-03-30T05:01:12;101098.94;;;6.21
78669;BMP280;67984;45.118;20.724;2023-03-30T05:11:52;101098.91;;;6.09
78669;BMP280;67984;45.118;20.724;2023-03-30T05:22:14;101100.09;;;6.00
78669;BMP280;67984;45.118;20.724;2023-03-30T05:32:32;101088.13;;;6.19
78669;BMP280;67984;45.118;20.724;2023-03-30T05:42:59;101083.41;;;6.66
78669;BMP280;67984;45.118;20.724;2023-03-30T05:53:14;101088.31;;;6.71
78669;BMP280;67984;45.118;20.724;2023-03-30T06:03:32;101092.69;;;7.02
78669;BMP280;67984;45.118;20.724;2023-03-30T06:13:34;101098.13;;;7.49
78669;BMP280;67984;45.118;20.724;2023-03-30T06:23:35;101109.69;;;8.06
78669;BMP280;67984;45.118;20.724;2023-03-30T06:33:41;101103.59;;;8.14
78669;BMP280;67984;45.118;20.724;2023-03-30T06:43:43;101110.09;;;8.50
78669;BMP280;67984;45.118;20.724;2023-03-30T06:53:49;101117.50;;;8.98
78669;BMP280;67984;45.118;20.724;2023-03-30T07:03:53;101111.34;;;9.40
78669;BMP280;67984;45.118;20.724;2023-03-30T07:14:00;101097.91;;;9.98
78669;BMP280;67984;45.118;20.724;2023-03-30T07:24:02;101091.16;;;10.90
78669;BMP280;67984;45.118;20.724;2023-03-30T07:34:08;101081.75;;;11.44
78669;BMP280;67984;45.118;20.724;2023-03-30T07:44:14;101099.88;;;11.66
78669;BMP280;67984;45.118;20.724;2023-03-30T08:05:37;101081.13;;;12.47
78669;BMP280;67984;45.118;20.724;2023-03-30T08:15:49;101087.25;;;12.72
78669;BMP280;67984;45.118;20.724;2023-03-30T08:25:55;101068.28;;;13.03
78669;BMP280;67984;45.118;20.724;2023-03-30T08:35:56;101066.91;;;13.61
78669;BMP280;67984;45.118;20.724;2023-03-30T08:46:00;101065.38;;;14.29
78669;BMP280;67984;45.118;20.724;2023-03-30T08:56:08;101070.94;;;14.45
78669;BMP280;67984;45.118;20.724;2023-03-30T09:26:42;101032.19;;;15.38
78669;BMP280;67984;45.118;20.724;2023-03-30T09:36:56;101031.72;;;15.86
78669;BMP280;67984;45.118;20.724;2023-03-30T09:47:01;101027.22;;;16.53
78669;BMP280;67984;45.118;20.724;2023-03-30T09:57:02;101017.09;;;16.78
78669;BMP280;67984;45.118;20.724;2023-03-30T10:07:03;100990.72;;;17.27
78669;BMP280;67984;45.118;20.724;2023-03-30T10:17:04;100970.06;;;17.64
78669;BMP280;67984;45.118;20.724;2023-03-30T10:27:11;100959.72;;;18.12
78669;BMP280;67984;45.118;20.724;2023-03-30T10:37:16;100939.81;;;18.39
78669;BMP280;67984;45.118;20.724;2023-03-30T11:08:03;100929.22;;;18.58
78669;BMP280;67984;45.118;20.724;2023-03-30T11:39:22;100868.16;;;19.38
78669;BMP280;67984;45.118;20.724;2023-03-30T11:49:35;100859.94;;;19.85
78669;BMP280;67984;45.118;20.724;2023-03-30T12:10:38;100813.72;;;20.11
78669;BMP280;67984;45.118;20.724;2023-03-30T12:31:01;100790.81;;;20.38
78669;BMP280;67984;45.118;20.724;2023-03-30T12:41:08;100767.66;;;20.51
78669;BMP280;67984;45.118;20.724;2023-03-30T13:01:54;100739.13;;;20.21
78669;BMP280;67984;45.118;20.724;2023-03-30T13:53:09;100643.25;;;20.02
78669;BMP280;67984;45.118;20.724;2023-03-30T14:13:30;100623.63;;;20.33
78669;BMP280;67984;45.118;20.724;2023-03-30T14:33:37;100602.19;;;19.63
78669;BMP280;67984;45.118;20.724;2023-03-30T14:43:40;100596.47;;;19.31
78669;BMP280;67984;45.118;20.724;2023-03-30T14:53:41;100584.72;;;19.07
78669;BMP280;67984;45.118;20.724;2023-03-30T15:03:43;100569.22;;;18.97
78669;BMP280;67984;45.118;20.724;2023-03-30T15:13:49;100557.78;;;18.75
78669;BMP280;67984;45.118;20.724;2023-03-30T15:23:51;100544.38;;;18.70
78669;BMP280;67984;45.118;20.724;2023-03-30T15:33:57;100533.28;;;18.62
78669;BMP280;67984;45.118;20.724;2023-03-30T15:44:11;100523.22;;;18.57
78669;BMP280;67984;45.118;20.724;2023-03-30T15:54:19;100512.53;;;18.36
78669;BMP280;67984;45.118;20.724;2023-03-30T16:04:23;100507.81;;;18.03
78669;BMP280;67984;45.118;20.724;2023-03-30T16:14:24;100504.41;;;17.62
78669;BMP280;67984;45.118;20.724;2023-03-30T16:24:26;100500.50;;;17.22
78669;BMP280;67984;45.118;20.724;2023-03-30T16:34:29;100492.25;;;16.73
78669;BMP280;67984;45.118;20.724;2023-03-30T16:44:30;100498.47;;;16.31
78669;BMP280;67984;45.118;20.724;2023-03-30T16:54:31;100484.78;;;16.01
78669;BMP280;67984;45.118;20.724;2023-03-30T17:04:31;100481.19;;;15.72
78669;BMP280;67984;45.118;20.724;2023-03-30T17:14:32;100464.91;;;15.35
78669;BMP280;67984;45.118;20.724;2023-03-30T17:24:33;100469.19;;;15.03
78669;BMP280;67984;45.118;20.724;2023-03-30T17:34:34;100453.09;;;14.74
78669;BMP280;67984;45.118;20.724;2023-03-30T17:44:34;100439.03;;;14.58
78669;BMP280;67984;45.118;20.724;2023-03-30T17:54:36;100441.75;;;14.55
78669;BMP280;67984;45.118;20.724;2023-03-30T18:04:37;100421.50;;;14.52
78669;BMP280;67984;45.118;20.724;2023-03-30T18:14:38;100409.81;;;14.56
78669;BMP280;67984;45.118;20.724;2023-03-30T18:24:39;100412.13;;;14.54
78669;BMP280;67984;45.118;20.724;2023-03-30T18:34:40;100412.13;;;14.54
78669;BMP280;67984;45.118;20.724;2023-03-30T18:44:44;100406.09;;;14.54
78669;BMP280;67984;45.118;20.724;2023-03-30T18:54:45;100401.31;;;14.49
78669;BMP280;67984;45.118;20.724;2023-03-30T19:04:49;100406.22;;;14.47
78669;BMP280;67984;45.118;20.724;2023-03-30T19:14:50;100403.94;;;14.49
78669;BMP280;67984;45.118;20.724;2023-03-30T19:24:51;100402.78;;;14.50
78669;BMP280;67984;45.118;20.724;2023-03-30T19:34:52;100418.53;;;14.50
78669;BMP280;67984;45.118;20.724;2023-03-30T19:44:55;100424.22;;;14.45
78669;BMP280;67984;45.118;20.724;2023-03-30T19:54:56;100435.66;;;14.31
78669;BMP280;67984;45.118;20.724;2023-03-30T20:04:56;100432.03;;;14.22
78669;BMP280;67984;45.118;20.724;2023-03-30T20:14:57;100438.44;;;14.21
78669;BMP280;67984;45.118;20.724;2023-03-30T20:24:59;100467.31;;;14.21
78669;BMP280;67984;45.118;20.724;2023-03-30T20:35:00;100480.16;;;14.12
78669;BMP280;67984;45.118;20.724;2023-03-30T20:45:00;100482.22;;;13.94
78669;BMP280;67984;45.118;20.724;2023-03-30T20:55:01;100477.19;;;13.73
78669;BMP280;67984;45.118;20.724;2023-03-30T21:05:02;100491.13;;;13.63
78669;BMP280;67984;45.118;20.724;2023-03-30T21:15:03;100496.78;;;13.58
78669;BMP280;67984;45.118;20.724;2023-03-30T21:25:04;100488.63;;;13.49
78669;BMP280;67984;45.118;20.724;2023-03-30T21:35:05;100482.69;;;13.39
78669;BMP280;67984;45.118;20.724;2023-03-30T21:45:07;100477.19;;;13.30
78669;BMP280;67984;45.118;20.724;2023-03-30T21:55:11;100487.31;;;13.21
78669;BMP280;67984;45.118;20.724;2023-03-30T22:05:11;100475.09;;;13.04
78669;BMP280;67984;45.118;20.724;2023-03-30T22:15:12;100472.84;;;13.06
78669;BMP280;67984;45.118;20.724;2023-03-30T22:25:13;100465.00;;;13.06
78669;BMP280;67984;45.118;20.724;2023-03-30T22:35:13;100474.00;;;12.98
78669;BMP280;67984;45.118;20.724;2023-03-30T22:45:14;100455.47;;;13.26
78669;BMP280;67984;45.118;20.724;2023-03-30T22:55:15;100447.53;;;13.33
78669;BMP280;67984;45.118;20.724;2023-03-30T23:05:17;100437.50;;;13.28
78669;BMP280;67984;45.118;20.724;2023-03-30T23:15:20;100424.44;;;13.21
78669;BMP280;67984;45.118;20.724;2023-03-30T23:25:21;100412.88;;;13.18
78669;BMP280;67984;45.118;20.724;2023-03-30T23:35:22;100418.91;;;13.12
78669;BMP280;67984;45.118;20.724;2023-03-30T23:45:23;100415.88;;;13.13
78669;BMP280;67984;45.118;20.724;2023-03-30T23:55:24;100423.34;;;13.15
